Flinterbothnia — PBLG — position and weather

sailwx.info

Track history (hours):
 
Tides and Currents Weather Stations Pressure Air Temp Water Temp Dewpoint Dewpoint Depression Visibility Wind Speed Wind Dir Waves Ship Positions

Flinterbothnia

Last reported at 2015-Aug-29 11:15 UTC. Time now 2015-Aug-29 16:58 UTC.
Position N 55°36' E 015°21'.

Length 82 m; draft 5.3 m.

Type: Cargo ship. MMSI: 244741000.

Date/timePositionNaut miles runAvg speedWind from/ knotsBaromVisibWave heightAir tempDewpointWater temp
2015-Aug-29 11:15N 55°36' E 015°21'6 9.0
2015-Aug-29 10:33N 55°33' E 015°11'9 8.8
2015-Aug-29 09:33N 55°28' E 014°58'9 9.0
2015-Aug-29 08:33N 55°24' E 014°44'9 8.8
2015-Aug-29 07:33N 55°19' E 014°32'9 8.9
2015-Aug-29 06:33N 55°12' E 014°21'9 9.0
2015-Aug-29 05:33N 55°11' E 014°05'9 9.4
2015-Aug-29 04:33N 55°11' E 013°49'19 9.3
2015-Aug-29 02:32N 55°14' E 013°17'9 9.3
2015-Aug-29 01:33N 55°15' E 013°00'9 9.3
2015-Aug-29 00:33N 55°17' E 012°45'7 7.4
2015-Aug-28 23:33N 55°23' E 012°40'10 9.6
2015-Aug-28 22:33N 55°33' E 012°42'1110.7
2015-Aug-28 21:33N 55°44' E 012°41'9 9.5
2015-Aug-28 20:33N 55°53' E 012°39'9 9.4
2015-Aug-28 19:33N 56°02' E 012°39'1010.3
2015-Aug-28 18:33N 56°11' E 012°27'1010.1
2015-Aug-28 17:33N 56°19' E 012°18'10 9.7
2015-Aug-28 16:29N 56°28' E 012°08'9 9.9
2015-Aug-28 15:33N 56°36' E 011°60'10 9.8
2015-Aug-28 14:33N 56°45' E 011°52'1010.1
2015-Aug-28 13:33N 56°54' E 011°46'1110.0
2015-Aug-28 12:28N 57°05' E 011°39'9 9.5
2015-Aug-28 11:33N 57°13' E 011°34'9 9.3
2015-Aug-28 10:33N 57°22' E 011°27'9 9.4
2015-Aug-28 09:33N 57°30' E 011°18'9 9.3
2015-Aug-28 08:33N 57°37' E 011°07'1010.0
2015-Aug-28 07:33N 57°43' E 010°52'10 9.6
2015-Aug-28 06:33N 57°46' E 010°36'  
2015-Aug-22 06:04N 55°02' W 001°20'5 8.6
2015-Aug-22 05:31N 54°59' W 001°15'14 6.9
2015-Aug-22 03:33N 54°48' W 000°60'24 7.3
2015-Aug-22 00:13N 54°30' W 000°32'5 8.2
2015-Aug-21 23:33N 54°26' W 000°26'8 7.9
2015-Aug-21 22:33N 54°20' W 000°18'7 7.2
2015-Aug-21 21:33N 54°14' W 000°11'7 6.8
2015-Aug-21 20:33N 54°09' W 000°04'6 6.1
2015-Aug-21 19:33N 54°04' E 000°02'7 6.7
2015-Aug-21 18:33N 53°58' E 000°08'7 7.4
2015-Aug-21 17:33N 53°51' E 000°14'8 7.8
2015-Aug-21 16:33N 53°45' E 000°21'9 8.6
2015-Aug-21 15:33N 53°37' E 000°29'3 1.0
2015-Aug-21 12:08N 53°34' E 000°27'0 0.0
2015-Aug-21 10:23N 53°34' E 000°27'0 0.1
2015-Aug-21 09:29N 53°34' E 000°27'0 0.0
2015-Aug-21 08:23N 53°34' E 000°27'0 0.0
2015-Aug-21 07:23N 53°34' E 000°27'0 0.1
2015-Aug-21 06:23N 53°34' E 000°27'0 0.2
2015-Aug-21 05:32N 53°34' E 000°27'0 0.0
2015-Aug-21 04:14N 53°34' E 000°27'0 0.0
2015-Aug-21 03:29N 53°34' E 000°27'0 0.0
2015-Aug-21 01:26N 53°34' E 000°27'0 0.0
2015-Aug-21 00:26N 53°34' E 000°27'0 0.0
2015-Aug-20 23:29N 53°34' E 000°27'0 0.1
2015-Aug-20 21:32N 53°34' E 000°27'0 0.0
2015-Aug-20 20:29N 53°34' E 000°27'0 0.0
2015-Aug-20 19:32N 53°34' E 000°27'0 0.0
2015-Aug-20 18:32N 53°34' E 000°27'0 0.1
2015-Aug-20 17:20N 53°34' E 000°27'0 0.1
2015-Aug-20 16:32N 53°34' E 000°27'0 0.0
2015-Aug-20 15:32N 53°34' E 000°27'0 0.0
2015-Aug-20 14:32N 53°34' E 000°27'0 0.0
2015-Aug-20 13:23N 53°34' E 000°27'0 0.0
2015-Aug-20 09:11N 53°34' E 000°27'0 0.0
2015-Aug-20 08:26N 53°34' E 000°27'0 0.0
2015-Aug-20 07:29N 53°34' E 000°27'0 0.0
2015-Aug-20 06:29N 53°34' E 000°27'0 0.0
2015-Aug-20 05:28N 53°34' E 000°27'0 0.2
2015-Aug-20 04:25N 53°34' E 000°27'0 0.0
2015-Aug-20 03:25N 53°34' E 000°27'0 0.0
2015-Aug-20 02:28N 53°34' E 000°27'0 0.0
2015-Aug-20 01:28N 53°34' E 000°27'0 0.0
2015-Aug-20 00:25N 53°34' E 000°27'0 0.0
2015-Aug-19 23:31N 53°34' E 000°27'0 0.1
2015-Aug-19 21:31N 53°34' E 000°27'0 0.1
2015-Aug-19 20:31N 53°34' E 000°27'0 0.0
2015-Aug-19 19:22N 53°34' E 000°27'0 0.0
2015-Aug-19 18:31N 53°34' E 000°27'0 0.0
2015-Aug-19 17:19N 53°34' E 000°27'0 0.2
2015-Aug-19 16:31N 53°34' E 000°27'0 0.0
2015-Aug-19 15:07N 53°34' E 000°27'0 0.0
2015-Aug-19 14:19N 53°34' E 000°27'0 0.0
2015-Aug-19 12:22N 53°34' E 000°27'0 0.0
2015-Aug-19 11:19N 53°34' E 000°27'  
Track history (hours):
 
Tides and Currents Weather Stations Pressure Air Temp Water Temp Dewpoint Dewpoint Depression Visibility Wind Speed Wind Dir Waves Ship Positions

Flinterbothnia

Last reported at 2015-Aug-29 11:15 UTC. Time now 2015-Aug-29 16:58 UTC.
Position N 55°36' E 015°21'.

Length 82 m; draft 5.3 m.

Type: Cargo ship. MMSI: 244741000.

Date/timePositionNaut miles runAvg speedWind from/ knotsBaromVisibWave heightAir tempDewpointWater temp
2015-Aug-29 11:15N 55°36' E 015°21'6 9.0
2015-Aug-29 10:33N 55°33' E 015°11'9 8.8
2015-Aug-29 09:33N 55°28' E 014°58'9 9.0
2015-Aug-29 08:33N 55°24' E 014°44'9 8.8
2015-Aug-29 07:33N 55°19' E 014°32'9 8.9
2015-Aug-29 06:33N 55°12' E 014°21'9 9.0
2015-Aug-29 05:33N 55°11' E 014°05'9 9.4
2015-Aug-29 04:33N 55°11' E 013°49'19 9.3
2015-Aug-29 02:32N 55°14' E 013°17'9 9.3
2015-Aug-29 01:33N 55°15' E 013°00'9 9.3
2015-Aug-29 00:33N 55°17' E 012°45'7 7.4
2015-Aug-28 23:33N 55°23' E 012°40'10 9.6
2015-Aug-28 22:33N 55°33' E 012°42'1110.7
2015-Aug-28 21:33N 55°44' E 012°41'9 9.5
2015-Aug-28 20:33N 55°53' E 012°39'9 9.4
2015-Aug-28 19:33N 56°02' E 012°39'1010.3
2015-Aug-28 18:33N 56°11' E 012°27'1010.1
2015-Aug-28 17:33N 56°19' E 012°18'10 9.7
2015-Aug-28 16:29N 56°28' E 012°08'9 9.9
2015-Aug-28 15:33N 56°36' E 011°60'10 9.8
2015-Aug-28 14:33N 56°45' E 011°52'1010.1
2015-Aug-28 13:33N 56°54' E 011°46'1110.0
2015-Aug-28 12:28N 57°05' E 011°39'9 9.5
2015-Aug-28 11:33N 57°13' E 011°34'9 9.3
2015-Aug-28 10:33N 57°22' E 011°27'9 9.4
2015-Aug-28 09:33N 57°30' E 011°18'9 9.3
2015-Aug-28 08:33N 57°37' E 011°07'1010.0
2015-Aug-28 07:33N 57°43' E 010°52'10 9.6
2015-Aug-28 06:33N 57°46' E 010°36'  
2015-Aug-22 06:04N 55°02' W 001°20'5 8.6
2015-Aug-22 05:31N 54°59' W 001°15'14 6.9
2015-Aug-22 03:33N 54°48' W 000°60'24 7.3
2015-Aug-22 00:13N 54°30' W 000°32'5 8.2
2015-Aug-21 23:33N 54°26' W 000°26'8 7.9
2015-Aug-21 22:33N 54°20' W 000°18'7 7.2
2015-Aug-21 21:33N 54°14' W 000°11'7 6.8
2015-Aug-21 20:33N 54°09' W 000°04'6 6.1
2015-Aug-21 19:33N 54°04' E 000°02'7 6.7
2015-Aug-21 18:33N 53°58' E 000°08'7 7.4
2015-Aug-21 17:33N 53°51' E 000°14'8 7.8
2015-Aug-21 16:33N 53°45' E 000°21'9 8.6
2015-Aug-21 15:33N 53°37' E 000°29'3 1.0
2015-Aug-21 12:08N 53°34' E 000°27'0 0.0
2015-Aug-21 10:23N 53°34' E 000°27'0 0.1
2015-Aug-21 09:29N 53°34' E 000°27'0 0.0
2015-Aug-21 08:23N 53°34' E 000°27'0 0.0
2015-Aug-21 07:23N 53°34' E 000°27'0 0.1
2015-Aug-21 06:23N 53°34' E 000°27'0 0.2
2015-Aug-21 05:32N 53°34' E 000°27'0 0.0
2015-Aug-21 04:14N 53°34' E 000°27'0 0.0
2015-Aug-21 03:29N 53°34' E 000°27'0 0.0
2015-Aug-21 01:26N 53°34' E 000°27'0 0.0
2015-Aug-21 00:26N 53°34' E 000°27'0 0.0
2015-Aug-20 23:29N 53°34' E 000°27'0 0.1
2015-Aug-20 21:32N 53°34' E 000°27'0 0.0
2015-Aug-20 20:29N 53°34' E 000°27'0 0.0
2015-Aug-20 19:32N 53°34' E 000°27'0 0.0
2015-Aug-20 18:32N 53°34' E 000°27'0 0.1
2015-Aug-20 17:20N 53°34' E 000°27'0 0.1
2015-Aug-20 16:32N 53°34' E 000°27'0 0.0
2015-Aug-20 15:32N 53°34' E 000°27'0 0.0
2015-Aug-20 14:32N 53°34' E 000°27'0 0.0
2015-Aug-20 13:23N 53°34' E 000°27'0 0.0
2015-Aug-20 09:11N 53°34' E 000°27'0 0.0
2015-Aug-20 08:26N 53°34' E 000°27'0 0.0
2015-Aug-20 07:29N 53°34' E 000°27'0 0.0
2015-Aug-20 06:29N 53°34' E 000°27'0 0.0
2015-Aug-20 05:28N 53°34' E 000°27'0 0.2
2015-Aug-20 04:25N 53°34' E 000°27'0 0.0
2015-Aug-20 03:25N 53°34' E 000°27'0 0.0
2015-Aug-20 02:28N 53°34' E 000°27'0 0.0
2015-Aug-20 01:28N 53°34' E 000°27'0 0.0
2015-Aug-20 00:25N 53°34' E 000°27'0 0.0
2015-Aug-19 23:31N 53°34' E 000°27'0 0.1
2015-Aug-19 21:31N 53°34' E 000°27'0 0.1
2015-Aug-19 20:31N 53°34' E 000°27'0 0.0
2015-Aug-19 19:22N 53°34' E 000°27'0 0.0
2015-Aug-19 18:31N 53°34' E 000°27'0 0.0
2015-Aug-19 17:19N 53°34' E 000°27'0 0.2
2015-Aug-19 16:31N 53°34' E 000°27'0 0.0
2015-Aug-19 15:07N 53°34' E 000°27'0 0.0
2015-Aug-19 14:19N 53°34' E 000°27'0 0.0
2015-Aug-19 12:22N 53°34' E 000°27'0 0.0
2015-Aug-19 11:19N 53°34' E 000°27'  

Dump ship's entire track history